Annandale, Minnesota
Current Conditions -  °F | °C
As of 2:15 PM on Wednesday 26 Nov 2014 (Local Time) from KMGG Reporting Station
Overcast Overcast  
Wind Chill: 15°   Ceiling: 2000
Heat Index: 25°   Visibility: 10mi
Dew Point: 19°   Wind: 9mph
Humidity: 77%   Direction: 350°N
Pressure: 30.23"   Gusts: NA
Location:  45.26°N, 94.12°W
Report Text: KMGG 262015Z AUTO 35008KT 10SM BKN020 OVC100 M04/M07 A3023 RMK AO2 T10401075
Loading
Personal Weather Stations






























Interactive Weather Map New forecast layout! Learn more

10-Day Weather Forecast

Advertisements
Track Severe Weather on mobile